Time;durP1;ratioP1;P1;durP2;ratioP2;P2;SDS_P1;SDS_P2;PMS_P1;PMS_P2;Temp;Humidity;BMP_temperature;BMP_pressure;BME280_temperature;BME280_humidity;BME280_pressure;Samples;Min_cycle;Max_cycle;Signal;HPM_P1;HPM_P2
2022/01/26 00:07:50;;;;;;;154.95;70.13;;;4.50;99.90;;;;;;5060716;28;20158;-75
2022/01/26 00:10:16;;;;;;;152.57;69.55;;;4.50;99.90;;;;;;5101911;28;20650;-75
2022/01/26 00:12:42;;;;;;;147.15;67.95;;;4.50;99.90;;;;;;5071367;28;20044;-75
2022/01/26 00:15:08;;;;;;;144.00;66.03;;;4.40;99.90;;;;;;5052095;28;20161;-75
2022/01/26 00:17:34;;;;;;;143.13;65.45;;;4.40;99.90;;;;;;5065458;28;20111;-75
2022/01/26 00:38:40;;;;;;;138.18;61.92;;;4.20;99.90;;;;;;5065943;28;20035;-77
2022/01/26 00:41:12;;;;;;;134.52;62.88;;;4.30;99.90;;;;;;5053570;28;20040;-77
2022/01/26 00:43:44;;;;;;;137.63;62.67;;;4.30;99.90;;;;;;5069027;28;20029;-77
2022/01/26 00:46:10;;;;;;;136.45;63.70;;;4.30;99.90;;;;;;5083328;28;20024;-77
2022/01/26 00:48:37;;;;;;;138.23;62.45;;;4.30;99.90;;;;;;5075552;28;20031;-77
2022/01/26 00:51:06;;;;;;;134.30;62.08;;;4.30;99.90;;;;;;5061383;28;20025;-77
2022/01/26 00:53:36;;;;;;;150.83;64.10;;;4.30;99.90;;;;;;5067187;28;20016;-78
2022/01/26 00:56:04;;;;;;;145.63;66.18;;;4.30;99.90;;;;;;5062167;28;20036;-78
2022/01/26 00:58:30;;;;;;;164.32;69.40;;;4.30;99.90;;;;;;5057508;28;20013;-79
2022/01/26 01:00:59;;;;;;;151.43;67.30;;;4.30;99.90;;;;;;5065572;28;20027;-79
2022/01/26 01:03:26;;;;;;;150.45;67.07;;;4.20;99.90;;;;;;5057834;28;20082;-78
2022/01/26 01:08:24;;;;;;;155.70;68.47;;;4.20;99.90;;;;;;5074296;28;20032;-79
2022/01/26 01:10:52;;;;;;;146.05;64.43;;;4.20;99.90;;;;;;5082602;28;20028;-79
2022/01/26 01:13:22;;;;;;;148.55;66.88;;;4.20;99.90;;;;;;5057049;28;20101;-78
2022/01/26 01:15:50;;;;;;;145.15;64.65;;;4.10;99.90;;;;;;5080028;28;20036;-78
2022/01/26 01:18:22;;;;;;;157.60;69.07;;;4.10;99.90;;;;;;5071687;28;20058;-78
2022/01/26 01:29:08;;;;;;;153.38;64.82;;;4.20;99.90;;;;;;5079537;28;20396;-78
2022/01/26 01:31:49;;;;;;;147.77;66.50;;;4.10;99.90;;;;;;5057144;28;20055;-78
2022/01/26 01:34:38;;;;;;;150.40;67.50;;;4.10;99.90;;;;;;5095416;28;20040;-75
2022/01/26 01:37:09;;;;;;;152.23;65.32;;;4.10;99.90;;;;;;5069232;28;20040;-75
2022/01/26 01:39:36;;;;;;;148.35;65.47;;;4.00;99.90;;;;;;5079453;28;20476;-75
2022/01/26 01:42:07;;;;;;;147.50;67.13;;;4.10;99.90;;;;;;5077641;28;20477;-75
2022/01/26 01:44:33;;;;;;;146.77;64.25;;;4.10;99.90;;;;;;5062031;28;20089;-78
2022/01/26 01:46:59;;;;;;;149.60;66.03;;;4.10;99.90;;;;;;5083211;28;20056;-78
2022/01/26 01:49:25;;;;;;;151.82;66.82;;;4.10;99.90;;;;;;5060109;28;20065;-78
2022/01/26 01:51:56;;;;;;;151.38;63.47;;;4.10;99.90;;;;;;5078853;28;20062;-78
2022/01/26 01:54:22;;;;;;;158.18;68.00;;;4.10;99.90;;;;;;5071099;28;20040;-78
2022/01/26 01:56:57;;;;;;;148.05;65.47;;;4.10;99.90;;;;;;5064306;28;20029;-78
2022/01/26 01:59:31;;;;;;;163.10;69.82;;;4.10;99.90;;;;;;5068130;28;20028;-78
2022/01/26 02:01:58;;;;;;;151.95;64.97;;;4.00;99.90;;;;;;5051043;28;20142;-78
2022/01/26 02:04:23;;;;;;;161.60;70.68;;;4.00;99.90;;;;;;5051675;28;20028;-78
2022/01/26 02:06:49;;;;;;;155.63;67.68;;;3.90;99.90;;;;;;5077828;28;20064;-78
2022/01/26 02:09:15;;;;;;;167.38;71.57;;;3.90;99.90;;;;;;5054739;28;20068;-77
2022/01/26 02:11:53;;;;;;;165.20;69.80;;;4.00;99.90;;;;;;5067692;28;20032;-75
2022/01/26 02:14:28;;;;;;;168.80;69.78;;;3.90;99.90;;;;;;5072282;28;20119;-75
2022/01/26 03:03:19;;;;;;;160.00;67.88;;;4.10;99.90;;;;;;5069381;28;20029;-75
2022/01/26 03:05:39;;;;;;;164.27;68.97;;;4.10;99.90;;;;;;5060527;28;20119;-75
2022/01/26 03:08:06;;;;;;;151.75;63.67;;;4.10;99.90;;;;;;5056511;28;20136;-75
2022/01/26 03:10:41;;;;;;;164.32;67.00;;;4.20;99.90;;;;;;5070272;28;20032;-75
2022/01/26 03:13:15;;;;;;;159.57;66.85;;;4.20;99.90;;;;;;5067090;28;20044;-75
2022/01/26 03:15:49;;;;;;;160.43;67.40;;;4.20;99.90;;;;;;5052307;28;20467;-75
2022/01/26 03:20:43;;;;;;;165.30;70.20;;;4.20;99.90;;;;;;5058401;28;20504;-79
2022/01/26 03:28:42;;;;;;;160.70;67.88;;;4.10;99.90;;;;;;5057573;28;20404;-79
2022/01/26 03:34:02;;;;;;;169.43;68.40;;;4.00;99.90;;;;;;5076119;28;20066;-78
2022/01/26 03:36:32;;;;;;;156.43;66.82;;;4.00;99.90;;;;;;5069929;28;20042;-79
2022/01/26 03:39:09;;;;;;;164.88;68.63;;;4.10;99.90;;;;;;5080261;28;20025;-79
2022/01/26 03:41:48;;;;;;;158.10;66.53;;;4.10;99.90;;;;;;5069755;28;20039;-79
2022/01/26 03:44:14;;;;;;;;;;;4.10;99.90;;;;;;5069627;28;20477;-78
2022/01/26 03:46:41;;;;;;;157.48;67.65;;;4.10;99.90;;;;;;5086540;28;19909;-78
2022/01/26 03:49:07;;;;;;;167.05;66.40;;;4.00;99.90;;;;;;5072698;28;20483;-78
2022/01/26 03:51:34;;;;;;;164.43;66.88;;;4.00;99.90;;;;;;5065027;28;20041;-79
2022/01/26 03:54:00;;;;;;;159.65;66.35;;;4.00;99.90;;;;;;5068597;28;20028;-75
2022/01/26 03:56:26;;;;;;;167.32;67.88;;;4.00;99.90;;;;;;5072063;28;20518;-78
2022/01/26 03:58:51;;;;;;;158.95;66.60;;;4.00;99.90;;;;;;5051607;28;20039;-79
2022/01/26 04:01:17;;;;;;;160.85;64.70;;;4.00;99.90;;;;;;5080906;28;20643;-79
2022/01/26 04:03:43;;;;;;;162.55;64.40;;;4.00;99.90;;;;;;5078779;28;20034;-79
2022/01/26 04:06:09;;;;;;;154.00;60.00;;;4.00;99.90;;;;;;5058721;28;20131;-79
2022/01/26 04:08:36;;;;;;;161.75;65.93;;;4.00;99.90;;;;;;5072727;28;20042;-78
2022/01/26 04:13:34;;;;;;;166.82;67.20;;;4.00;99.90;;;;;;5076537;28;20036;-78
2022/01/26 04:15:59;;;;;;;159.23;65.05;;;3.90;99.90;;;;;;5082124;28;20031;-78
2022/01/26 04:18:32;;;;;;;162.50;64.93;;;3.90;99.90;;;;;;5061759;28;20491;-78
2022/01/26 04:21:03;;;;;;;160.63;63.72;;;3.80;99.90;;;;;;5068258;28;20633;-78
2022/01/26 04:23:41;;;;;;;166.65;65.05;;;3.80;99.90;;;;;;5071833;28;20460;-78
2022/01/26 04:26:07;;;;;;;164.88;66.43;;;3.80;99.90;;;;;;5068824;28;20028;-78
2022/01/26 04:28:44;;;;;;;160.43;63.85;;;3.80;99.90;;;;;;5046951;28;20071;-78
2022/01/26 04:31:10;;;;;;;166.80;66.47;;;3.70;99.90;;;;;;5069612;28;20052;-78
2022/01/26 04:33:37;;;;;;;171.02;66.35;;;3.70;99.90;;;;;;5078825;28;20093;-78
2022/01/26 04:36:06;;;;;;;168.02;65.47;;;3.70;99.90;;;;;;5069254;28;20032;-79
2022/01/26 04:38:39;;;;;;;167.77;67.22;;;3.60;99.90;;;;;;5051058;28;20029;-75
2022/01/26 04:43:53;;;;;;;170.93;64.65;;;3.70;99.90;;;;;;5060506;28;20086;-75
2022/01/26 04:46:18;;;;;;;153.45;61.30;;;3.60;99.90;;;;;;5066774;28;20024;-75
2022/01/26 04:48:44;;;;;;;174.15;64.25;;;3.60;99.90;;;;;;5088429;28;20043;-75
2022/01/26 04:51:09;;;;;;;176.50;66.75;;;3.70;99.90;;;;;;5074274;28;20377;-77
2022/01/26 04:53:35;;;;;;;174.10;66.47;;;3.70;99.90;;;;;;5074404;28;20024;-77
2022/01/26 04:56:01;;;;;;;167.40;65.90;;;3.70;99.90;;;;;;5052596;28;20028;-77
2022/01/26 04:58:26;;;;;;;173.10;66.65;;;3.70;99.90;;;;;;5058494;28;20020;-77
2022/01/26 05:00:52;;;;;;;165.63;65.68;;;3.70;99.90;;;;;;5055758;28;20047;-77
2022/01/26 05:03:18;;;;;;;167.98;69.78;;;3.70;99.90;;;;;;5081194;28;20024;-77
2022/01/26 05:05:44;;;;;;;170.63;67.95;;;3.70;99.90;;;;;;5072388;28;20399;-79
2022/01/26 05:08:09;;;;;;;169.18;66.53;;;3.70;99.90;;;;;;5085510;28;20118;-79
2022/01/26 05:10:37;;;;;;;169.05;67.93;;;3.70;99.90;;;;;;5081430;28;20074;-79
2022/01/26 05:13:03;;;;;;;166.85;66.20;;;3.70;99.90;;;;;;5068774;28;20112;-79
2022/01/26 05:15:29;;;;;;;169.52;65.93;;;3.70;99.90;;;;;;5066327;28;20111;-78
2022/01/26 05:17:54;;;;;;;172.20;67.35;;;3.70;99.90;;;;;;5059236;28;20040;-79
2022/01/26 05:20:20;;;;;;;169.20;67.45;;;3.70;99.90;;;;;;5075830;28;20025;-79
2022/01/26 05:22:46;;;;;;;158.88;62.30;;;3.70;99.90;;;;;;5046720;28;20040;-75
2022/01/26 05:25:12;;;;;;;169.38;66.38;;;3.80;99.90;;;;;;5072622;28;20476;-75
2022/01/26 05:27:38;;;;;;;167.75;66.30;;;3.80;99.90;;;;;;5047323;28;20024;-75
2022/01/26 05:30:05;;;;;;;159.32;65.03;;;3.80;99.90;;;;;;5071357;28;20074;-75
2022/01/26 05:32:31;;;;;;;159.70;62.30;;;3.80;99.90;;;;;;5050364;28;20473;-75
2022/01/26 05:34:57;;;;;;;174.10;67.72;;;3.80;99.90;;;;;;5064392;28;20033;-75
2022/01/26 05:37:23;;;;;;;152.55;62.58;;;3.90;99.90;;;;;;5051258;28;20032;-75
2022/01/26 05:39:48;;;;;;;166.57;62.83;;;3.90;99.90;;;;;;5054385;28;20029;-75
2022/01/26 05:42:15;;;;;;;169.73;66.78;;;3.90;99.90;;;;;;5055878;28;20313;-75
2022/01/26 05:44:40;;;;;;;166.85;62.80;;;3.90;99.90;;;;;;5068812;28;20035;-75
2022/01/26 05:47:08;;;;;;;157.70;64.57;;;3.80;99.90;;;;;;5062127;28;20388;-75
2022/01/26 05:49:34;;;;;;;157.20;60.78;;;3.90;99.90;;;;;;5066972;28;20143;-75
2022/01/26 05:52:00;;;;;;;153.18;60.78;;;3.90;99.90;;;;;;5069026;28;20516;-75
2022/01/26 05:54:25;;;;;;;169.10;64.28;;;3.90;99.90;;;;;;5063260;28;20106;-75
2022/01/26 05:56:51;;;;;;;167.73;64.97;;;4.00;99.90;;;;;;5080041;28;20062;-75
2022/01/26 05:59:20;;;;;;;170.73;65.35;;;4.10;99.90;;;;;;5055055;28;20036;-75
2022/01/26 06:01:47;;;;;;;170.88;63.60;;;4.10;99.90;;;;;;5075657;28;20032;-75
2022/01/26 06:04:12;;;;;;;168.77;65.15;;;4.10;99.90;;;;;;5076925;28;20047;-75
2022/01/26 06:06:38;;;;;;;167.05;65.72;;;4.10;99.90;;;;;;5065252;28;20040;-75
2022/01/26 06:09:04;;;;;;;160.90;64.38;;;4.10;99.90;;;;;;5069006;28;20063;-75
2022/01/26 06:11:29;;;;;;;163.57;65.80;;;4.10;99.90;;;;;;5049427;28;20137;-75
2022/01/26 06:13:55;;;;;;;162.07;64.75;;;4.10;99.90;;;;;;5051139;28;20548;-75
2022/01/26 06:16:24;;;;;;;167.00;66.15;;;4.10;99.90;;;;;;5070223;28;20062;-76
2022/01/26 06:18:50;;;;;;;161.82;61.85;;;4.10;99.90;;;;;;5061883;28;20086;-76
2022/01/26 06:21:15;;;;;;;160.93;62.53;;;4.10;99.90;;;;;;5063253;28;20489;-76
2022/01/26 06:23:41;;;;;;;165.13;64.25;;;4.20;99.90;;;;;;5053305;28;20056;-76
2022/01/26 06:26:07;;;;;;;165.48;65.32;;;4.10;99.90;;;;;;5055376;28;20044;-76
2022/01/26 06:28:33;;;;;;;160.80;64.00;;;4.20;99.90;;;;;;5042165;28;20489;-78
2022/01/26 06:31:10;;;;;;;172.50;65.43;;;4.10;99.90;;;;;;5054802;28;20048;-76
2022/01/26 06:33:39;;;;;;;159.23;64.80;;;4.20;99.90;;;;;;5067508;28;20029;-77
2022/01/26 06:36:05;;;;;;;171.15;67.35;;;4.20;99.90;;;;;;5070722;28;20049;-77
2022/01/26 06:38:30;;;;;;;162.07;66.05;;;4.20;99.90;;;;;;5057654;28;20585;-77
2022/01/26 06:40:58;;;;;;;178.25;68.47;;;4.10;99.90;;;;;;5065097;28;20049;-77
2022/01/26 06:43:27;;;;;;;169.18;65.22;;;4.10;99.90;;;;;;5049265;28;20056;-78
2022/01/26 06:46:05;;;;;;;172.65;67.22;;;4.20;99.90;;;;;;5045847;28;20037;-78
2022/01/26 06:50:59;;;;;;;170.13;68.22;;;4.20;99.90;;;;;;5068270;28;20032;-78
2022/01/26 06:53:25;;;;;;;165.27;67.35;;;4.20;99.90;;;;;;5053526;28;20060;-77
2022/01/26 06:55:51;;;;;;;167.07;64.72;;;4.20;99.90;;;;;;5068930;28;20060;-78
2022/01/26 06:58:16;;;;;;;173.93;69.10;;;4.20;99.90;;;;;;5036513;28;20485;-77
2022/01/26 07:00:42;;;;;;;166.52;65.68;;;4.10;99.90;;;;;;5048419;28;20099;-77
2022/01/26 07:03:08;;;;;;;169.02;67.90;;;4.10;99.90;;;;;;5067411;28;20032;-77
2022/01/26 07:05:35;;;;;;;169.68;68.55;;;4.10;99.90;;;;;;5058896;28;20106;-77
2022/01/26 07:08:02;;;;;;;165.13;65.70;;;4.10;99.90;;;;;;5069954;28;20039;-78
2022/01/26 07:10:28;;;;;;;174.45;68.50;;;4.10;99.90;;;;;;5069917;28;20124;-78
2022/01/26 07:12:53;;;;;;;177.20;67.88;;;4.10;99.90;;;;;;5072340;28;20055;-77
2022/01/26 07:23:31;;;;;;;173.85;66.13;;;4.10;99.90;;;;;;5052170;28;20109;-78
2022/01/26 07:25:57;;;;;;;177.70;66.93;;;4.10;99.90;;;;;;5071172;28;20540;-78
2022/01/26 07:28:23;;;;;;;180.48;66.57;;;4.10;99.90;;;;;;5059301;28;20112;-78
2022/01/26 07:30:50;;;;;;;174.05;66.50;;;4.20;99.90;;;;;;5050565;28;20055;-78
2022/01/26 07:33:16;;;;;;;170.25;63.60;;;4.20;99.90;;;;;;5072424;28;20545;-78
2022/01/26 07:35:41;;;;;;;174.43;65.20;;;4.20;99.90;;;;;;5069401;28;20050;-78
2022/01/26 07:38:07;;;;;;;186.50;70.75;;;4.20;99.90;;;;;;5055009;28;20037;-78
2022/01/26 07:40:33;;;;;;;181.43;68.60;;;4.20;99.90;;;;;;5053804;28;20036;-77
2022/01/26 07:42:58;;;;;;;194.02;73.32;;;4.20;99.90;;;;;;5069204;28;20111;-77
2022/01/26 07:45:24;;;;;;;182.32;68.22;;;4.20;99.90;;;;;;5053518;28;20071;-78
2022/01/26 07:47:53;;;;;;;191.25;70.28;;;4.10;99.90;;;;;;5054777;28;20082;-78
2022/01/26 07:50:20;;;;;;;176.55;66.45;;;4.10;99.90;;;;;;5054561;28;20500;-78
2022/01/26 07:52:46;;;;;;;174.20;66.80;;;4.10;99.90;;;;;;5082182;28;20119;-78
2022/01/26 07:55:16;;;;;;;183.88;68.82;;;4.10;99.90;;;;;;5076094;28;20070;-78
2022/01/26 07:57:44;;;;;;;187.48;70.93;;;4.10;99.90;;;;;;5071940;28;20032;-78
2022/01/26 08:00:10;;;;;;;183.70;69.55;;;4.10;99.90;;;;;;5054271;28;20047;-78
2022/01/26 08:02:36;;;;;;;191.02;69.88;;;4.10;99.90;;;;;;5071018;28;20036;-78
2022/01/26 08:05:02;;;;;;;177.13;68.47;;;4.10;99.90;;;;;;5057543;28;20028;-79
2022/01/26 08:07:28;;;;;;;195.43;69.90;;;4.10;99.90;;;;;;5063707;28;20500;-79
2022/01/26 08:09:53;;;;;;;196.18;71.60;;;4.10;99.90;;;;;;5071138;28;20032;-79
2022/01/26 08:12:21;;;;;;;177.10;67.90;;;4.20;99.90;;;;;;5052608;28;20627;-79
2022/01/26 08:14:46;;;;;;;176.65;65.55;;;4.20;99.90;;;;;;5052324;28;20036;-79
2022/01/26 08:17:14;;;;;;;185.68;68.22;;;4.20;99.90;;;;;;5078333;28;20032;-79
2022/01/26 08:19:41;;;;;;;200.38;74.03;;;4.20;99.90;;;;;;5072697;28;20032;-79
2022/01/26 08:22:07;;;;;;;190.98;69.93;;;4.20;99.90;;;;;;5065828;28;20052;-79
2022/01/26 08:24:33;;;;;;;186.32;71.28;;;4.10;99.90;;;;;;5069182;28;20484;-79
2022/01/26 08:27:07;;;;;;;205.40;72.65;;;4.10;99.90;;;;;;5074385;28;20044;-79
2022/01/26 08:29:41;;;;;;;193.52;71.43;;;4.10;99.90;;;;;;5082053;28;20048;-79
2022/01/26 08:32:07;;;;;;;192.18;69.35;;;4.10;99.90;;;;;;5074766;28;20046;-78
2022/01/26 08:34:33;;;;;;;198.30;73.65;;;4.10;99.90;;;;;;5088909;28;20434;-78
2022/01/26 08:36:58;;;;;;;186.48;71.55;;;4.10;99.90;;;;;;5090254;28;20089;-78
2022/01/26 08:39:24;;;;;;;194.52;69.22;;;4.10;99.90;;;;;;5071007;28;20514;-79
2022/01/26 08:41:50;;;;;;;192.15;72.20;;;4.00;99.90;;;;;;5055054;28;20053;-79
2022/01/26 08:44:16;;;;;;;199.43;72.35;;;4.10;99.90;;;;;;5068640;28;20614;-79
2022/01/26 08:46:42;;;;;;;198.60;73.65;;;4.00;99.90;;;;;;5053765;28;21012;-79
2022/01/26 08:49:08;;;;;;;193.48;71.57;;;4.00;99.90;;;;;;5055785;28;20036;-79
2022/01/26 08:51:33;;;;;;;207.63;74.47;;;4.00;99.90;;;;;;5070296;28;20039;-79
2022/01/26 08:53:59;;;;;;;204.27;74.75;;;4.00;99.90;;;;;;5070080;28;20211;-79
2022/01/26 08:56:26;;;;;;;204.10;73.25;;;3.90;99.90;;;;;;5058415;28;20082;-79
2022/01/26 08:58:53;;;;;;;207.07;72.90;;;3.90;99.90;;;;;;5068598;28;20085;-79
2022/01/26 09:01:19;;;;;;;203.70;75.03;;;3.90;99.90;;;;;;5057695;28;20032;-79
2022/01/26 09:03:45;;;;;;;205.85;71.70;;;4.00;99.90;;;;;;5070221;28;20036;-79
2022/01/26 09:06:10;;;;;;;201.57;72.95;;;4.00;99.90;;;;;;5073042;28;20047;-79
2022/01/26 09:08:41;;;;;;;210.23;72.50;;;4.00;99.90;;;;;;5062644;28;20362;-79
2022/01/26 09:11:07;;;;;;;221.85;76.32;;;4.00;99.90;;;;;;5070503;28;20435;-79
2022/01/26 09:13:34;;;;;;;199.38;71.82;;;3.90;99.90;;;;;;5070785;28;20024;-78
2022/01/26 09:16:04;;;;;;;209.93;72.75;;;3.90;99.90;;;;;;5077348;28;20035;-79
2022/01/26 09:18:50;;;;;;;206.45;72.13;;;3.90;99.90;;;;;;5070947;28;20422;-79
2022/01/26 09:21:16;;;;;;;199.15;72.05;;;3.90;99.90;;;;;;5054500;28;20086;-81
2022/01/26 09:23:42;;;;;;;208.20;73.35;;;3.90;99.90;;;;;;5067968;28;20064;-79
2022/01/26 09:26:07;;;;;;;211.88;72.90;;;3.90;99.90;;;;;;5051809;28;20485;-79
2022/01/26 09:28:33;;;;;;;213.65;75.43;;;3.90;99.90;;;;;;5067941;28;20047;-79
2022/01/26 09:30:59;;;;;;;209.23;70.75;;;3.90;99.90;;;;;;5067489;28;20504;-79
2022/01/26 09:33:24;;;;;;;207.45;71.32;;;3.90;99.90;;;;;;5051323;28;20388;-79
2022/01/26 09:35:50;;;;;;;208.00;69.32;;;4.00;99.90;;;;;;5051469;28;20308;-79
2022/01/26 09:38:17;;;;;;;204.10;70.82;;;4.10;99.90;;;;;;5051899;28;20029;-79
2022/01/26 09:40:43;;;;;;;216.63;73.10;;;4.10;99.90;;;;;;5089777;28;20420;-79
2022/01/26 09:43:11;;;;;;;196.05;68.85;;;4.00;99.90;;;;;;5074829;28;20029;-76
2022/01/26 09:45:36;;;;;;;222.95;73.97;;;4.00;99.90;;;;;;5068983;28;20025;-76
2022/01/26 09:48:04;;;;;;;210.80;71.25;;;4.00;99.90;;;;;;5079704;28;20119;-76
2022/01/26 09:50:30;;;;;;;228.68;74.78;;;4.00;99.90;;;;;;5087977;28;20388;-76
2022/01/26 09:52:57;;;;;;;211.10;68.35;;;4.00;99.90;;;;;;5076253;28;20464;-76
2022/01/26 09:55:23;;;;;;;206.20;69.32;;;4.00;99.90;;;;;;5051285;28;20067;-79
2022/01/26 09:57:49;;;;;;;206.43;71.50;;;4.00;99.90;;;;;;5049388;28;20063;-79
2022/01/26 10:00:15;;;;;;;219.07;71.18;;;4.10;99.90;;;;;;5031018;28;20382;-79
2022/01/26 10:02:43;;;;;;;221.30;71.63;;;4.00;99.90;;;;;;5083386;28;20533;-78
2022/01/26 10:05:11;;;;;;;210.95;69.47;;;4.10;99.90;;;;;;5075046;28;20165;-80
2022/01/26 10:08:09;;;;;;;211.90;71.00;;;4.10;99.90;;;;;;5061564;28;21182;-78
2022/01/26 10:16:15;;;;;;;205.52;65.65;;;4.20;99.90;;;;;;5080291;28;20051;-76
2022/01/26 10:18:41;;;;;;;202.95;66.53;;;4.20;99.90;;;;;;5076971;28;20120;-79
2022/01/26 10:21:09;;;;;;;210.20;66.47;;;4.20;99.90;;;;;;5049903;28;20132;-78
2022/01/26 10:23:40;;;;;;;198.60;65.30;;;4.20;99.90;;;;;;5071382;28;20081;-79
2022/01/26 10:26:15;;;;;;;198.48;64.50;;;4.20;99.90;;;;;;5080198;28;20090;-76
2022/01/26 10:28:55;;;;;;;198.43;66.15;;;4.30;99.90;;;;;;5069115;28;20112;-76
2022/01/26 10:31:29;;;;;;;208.57;66.75;;;4.30;99.90;;;;;;5074126;28;20109;-76
2022/01/26 10:34:22;;;;;;;197.18;63.10;;;4.30;99.90;;;;;;5074704;28;20514;-76
2022/01/26 10:37:00;;;;;;;210.40;68.28;;;4.30;99.90;;;;;;5067250;28;20070;-77
2022/01/26 10:39:45;;;;;;;198.40;64.40;;;4.30;99.90;;;;;;5091540;28;20034;-77
2022/01/26 10:42:17;;;;;;;194.43;63.95;;;4.30;99.90;;;;;;5093097;28;20024;-77
2022/01/26 10:45:01;;;;;;;186.75;61.83;;;4.30;99.90;;;;;;5088599;28;20019;-77
2022/01/26 10:47:34;;;;;;;205.73;63.35;;;4.30;99.90;;;;;;5072686;28;20082;-77
2022/01/26 10:52:55;;;;;;;192.63;60.58;;;4.30;99.90;;;;;;5042965;28;20037;-77
2022/01/26 10:55:22;;;;;;;181.93;59.28;;;4.30;99.90;;;;;;5055995;28;20518;-77
2022/01/26 10:57:48;;;;;;;182.75;59.85;;;4.30;99.90;;;;;;5070472;28;20473;-77
2022/01/26 11:00:14;;;;;;;191.10;62.00;;;4.30;99.90;;;;;;5054219;28;20031;-77
2022/01/26 11:02:41;;;;;;;187.68;58.45;;;4.30;99.90;;;;;;5054418;28;20047;-78
2022/01/26 11:05:07;;;;;;;178.63;59.15;;;4.20;99.90;;;;;;5070714;28;20024;-78
2022/01/26 11:07:36;;;;;;;168.95;56.63;;;4.30;99.90;;;;;;5070889;28;20036;-76
2022/01/26 11:10:05;;;;;;;181.43;59.80;;;4.30;99.90;;;;;;5071268;28;20448;-75
2022/01/26 11:12:32;;;;;;;174.15;58.50;;;4.40;99.90;;;;;;5072271;28;20028;-77
2022/01/26 11:15:09;;;;;;;184.75;60.00;;;4.30;99.90;;;;;;5089909;28;20040;-77
2022/01/26 11:17:37;;;;;;;179.13;59.03;;;4.40;99.90;;;;;;5075581;28;20043;-77
2022/01/26 11:20:31;;;;;;;174.98;58.20;;;4.30;99.90;;;;;;5070323;28;20035;-77
2022/01/26 11:22:58;;;;;;;157.60;55.58;;;4.40;99.90;;;;;;5074186;28;20057;-77
2022/01/26 11:25:28;;;;;;;165.43;56.63;;;4.40;99.90;;;;;;5063540;28;20028;-78
2022/01/26 11:27:55;;;;;;;170.18;57.60;;;4.40;99.90;;;;;;5077729;28;20843;-78
2022/01/26 11:30:30;;;;;;;162.80;56.45;;;4.50;99.90;;;;;;5093347;28;20408;-78
2022/01/26 11:33:00;;;;;;;166.52;56.15;;;4.50;99.90;;;;;;5096671;28;20320;-78
2022/01/26 11:35:29;;;;;;;151.38;53.78;;;4.50;99.90;;;;;;5087871;28;20095;-78
2022/01/26 11:38:40;;;;;;;151.25;53.72;;;4.60;99.90;;;;;;5085272;28;20099;-78
2022/01/26 11:46:53;;;;;;;145.98;53.65;;;4.60;99.90;;;;;;5057299;28;20047;-78
2022/01/26 11:49:46;;;;;;;153.23;54.17;;;4.60;99.90;;;;;;5069795;28;20028;-78
2022/01/26 11:52:27;;;;;;;148.48;53.20;;;4.60;99.90;;;;;;5074922;28;20036;-78
2022/01/26 11:54:59;;;;;;;149.65;54.28;;;4.70;99.90;;;;;;5072499;28;20032;-78
2022/01/26 11:57:38;;;;;;;147.07;52.50;;;4.70;99.90;;;;;;5053694;28;20033;-79
2022/01/26 12:00:09;;;;;;;145.68;51.38;;;4.70;99.90;;;;;;5070553;28;20111;-78
2022/01/26 12:02:52;;;;;;;156.05;53.90;;;4.70;99.90;;;;;;5066262;28;20389;-78
2022/01/26 12:05:22;;;;;;;151.43;55.50;;;4.70;99.90;;;;;;5075741;28;20035;-78
2022/01/26 12:07:55;;;;;;;152.40;54.03;;;4.70;99.90;;;;;;5077311;28;20395;-79
2022/01/26 12:10:27;;;;;;;158.05;55.33;;;4.70;99.90;;;;;;5076887;28;20017;-79
2022/01/26 12:13:03;;;;;;;152.38;53.83;;;4.70;99.90;;;;;;5074868;28;20043;-79
2022/01/26 12:15:33;;;;;;;155.27;56.95;;;4.60;99.90;;;;;;5083593;28;20063;-80
2022/01/26 12:18:17;;;;;;;145.27;53.45;;;4.60;99.90;;;;;;5069592;28;20025;-80
2022/01/26 12:38:50;;;;;;;140.90;50.92;;;4.90;99.90;;;;;;5086437;28;19908;-79
2022/01/26 12:43:48;;;;;;;142.07;53.53;;;4.90;99.90;;;;;;5071557;28;20112;-79
2022/01/26 12:46:26;;;;;;;135.48;51.20;;;4.80;99.90;;;;;;5087884;28;20137;-79
2022/01/26 12:49:00;;;;;;;128.55;50.97;;;4.80;99.90;;;;;;5090292;28;20056;-79
2022/01/26 12:51:28;;;;;;;132.32;50.35;;;4.80;99.90;;;;;;5086392;28;20503;-79
2022/01/26 12:53:59;;;;;;;131.55;52.47;;;4.80;99.90;;;;;;5069623;28;20040;-79
2022/01/26 12:56:27;;;;;;;133.98;52.13;;;4.80;99.90;;;;;;5105556;28;20036;-79
2022/01/26 12:59:07;;;;;;;127.55;52.80;;;4.80;99.90;;;;;;5073298;28;20024;-79
2022/01/26 13:01:34;;;;;;;133.90;50.15;;;4.80;99.90;;;;;;5087196;28;20074;-76
2022/01/26 13:04:02;;;;;;;129.60;52.17;;;4.90;99.90;;;;;;5080127;28;20086;-79
2022/01/26 13:06:37;;;;;;;132.00;51.00;;;4.80;99.90;;;;;;5068800;28;20024;-79
2022/01/26 13:09:25;;;;;;;143.35;52.55;;;4.80;99.90;;;;;;5070230;28;20033;-79
2022/01/26 13:11:56;;;;;;;130.48;49.00;;;4.90;99.90;;;;;;5057094;28;20032;-77
2022/01/26 13:14:31;;;;;;;131.68;49.28;;;4.90;99.90;;;;;;5053121;28;20039;-77
2022/01/26 13:17:21;;;;;;;127.43;50.63;;;4.90;99.90;;;;;;5068232;28;20037;-77
2022/01/26 13:34:09;;;;;;;127.68;51.20;;;5.00;99.90;;;;;;5067181;28;20024;-76
2022/01/26 13:41:08;;;;;;;124.40;51.17;;;5.00;99.90;;;;;;5069516;28;20025;-77
2022/01/26 13:54:46;;;;;;;121.68;48.28;;;5.00;99.90;;;;;;5057680;28;20044;-77
2022/01/26 13:59:57;;;;;;;118.13;46.85;;;5.00;99.90;;;;;;5073828;28;20350;-74
2022/01/26 14:02:26;;;;;;;125.63;49.90;;;5.00;99.90;;;;;;5076598;28;20038;-73
2022/01/26 14:04:52;;;;;;;126.70;50.28;;;5.00;99.90;;;;;;5056714;28;20492;-76
2022/01/26 14:07:18;;;;;;;120.22;49.67;;;5.00;99.90;;;;;;5067526;28;20424;-76
2022/01/26 14:09:45;;;;;;;130.07;49.83;;;5.00;99.90;;;;;;5076454;28;20043;-77
2022/01/26 14:12:14;;;;;;;114.22;47.03;;;5.00;99.90;;;;;;5070151;28;20040;-76
2022/01/26 14:14:43;;;;;;;114.40;46.63;;;5.00;99.90;;;;;;5085703;28;20035;-76
2022/01/26 14:17:15;;;;;;;114.03;46.88;;;5.00;99.90;;;;;;5086286;28;20442;-76
2022/01/26 14:27:40;;;;;;;119.20;48.03;;;5.00;99.90;;;;;;5077958;28;20278;-76
2022/01/26 14:30:24;;;;;;;125.78;46.92;;;5.00;99.90;;;;;;5081203;28;20135;-76
2022/01/26 15:21:29;;;;;;;101.35;43.58;;;5.00;99.90;;;;;;5076410;28;20117;-78
2022/01/26 15:34:58;;;;;;;107.88;46.03;;;5.00;99.90;;;;;;5082744;28;20074;-77
2022/01/26 15:57:20;;;;;;;99.68;45.00;;;4.90;99.90;;;;;;5034124;28;20123;-77
2022/01/26 16:04:51;;;;;;;109.72;45.92;;;4.90;99.90;;;;;;5070172;28;20585;-80
2022/01/26 16:07:23;;;;;;;108.07;45.42;;;4.90;99.90;;;;;;5077791;28;20028;-78
2022/01/26 16:12:43;;;;;;;107.78;46.15;;;4.80;99.90;;;;;;5035420;28;20044;-77
2022/01/26 16:21:22;;;;;;;108.82;44.85;;;4.70;99.90;;;;;;5074425;28;20043;-76
2022/01/26 17:13:10;;;;;;;111.53;46.13;;;4.70;99.90;;;;;;5081883;28;20093;-76
2022/01/26 17:27:58;;;;;;;107.38;45.33;;;4.50;99.90;;;;;;5078610;28;20437;-77
2022/01/26 18:50:21;;;;;;;92.25;37.85;;;4.40;99.90;;;;;;5069320;28;20396;-76
2022/01/26 18:52:47;;;;;;;82.82;35.63;;;4.40;99.90;;;;;;5076787;28;20513;-76
2022/01/26 18:55:14;;;;;;;87.35;36.30;;;4.40;99.90;;;;;;5067242;28;20146;-77
2022/01/26 18:57:40;;;;;;;89.90;36.38;;;4.40;99.90;;;;;;5056519;28;20507;-77
2022/01/26 19:00:07;;;;;;;82.10;35.88;;;4.40;99.90;;;;;;5084658;28;20154;-77
2022/01/26 19:02:32;;;;;;;82.15;35.38;;;4.40;99.90;;;;;;5083308;28;20036;-77
2022/01/26 19:04:58;;;;;;;79.88;35.28;;;4.40;99.90;;;;;;5082718;28;20345;-78
2022/01/26 19:07:25;;;;;;;85.63;35.80;;;4.40;99.90;;;;;;5062928;28;20043;-78
2022/01/26 19:09:52;;;;;;;91.72;36.20;;;4.40;99.90;;;;;;5077069;28;20060;-78
2022/01/26 19:12:19;;;;;;;82.22;35.00;;;4.40;99.90;;;;;;5083418;28;20038;-78
2022/01/26 19:14:55;;;;;;;80.22;33.45;;;4.40;99.90;;;;;;5070636;28;20036;-76
2022/01/26 19:17:30;;;;;;;79.80;33.42;;;4.40;99.90;;;;;;5083860;28;20039;-76
2022/01/26 19:25:13;;;;;;;81.95;33.38;;;4.40;99.90;;;;;;5080492;28;20433;-77
2022/01/26 19:27:51;;;;;;;81.10;35.42;;;4.40;99.90;;;;;;5079405;28;20024;-78
2022/01/26 19:51:35;;;;;;;78.82;31.92;;;4.40;99.90;;;;;;5088145;28;20511;-78
2022/01/26 19:54:01;;;;;;;77.68;32.25;;;4.40;99.90;;;;;;5057606;28;20032;-78
2022/01/26 19:56:26;;;;;;;81.40;32.90;;;4.40;99.90;;;;;;5066470;28;20039;-78
2022/01/26 19:58:52;;;;;;;79.45;33.08;;;4.40;99.90;;;;;;5075563;28;20476;-79
2022/01/26 20:01:18;;;;;;;77.93;34.38;;;4.40;99.90;;;;;;5085739;28;20476;-78
2022/01/26 20:03:43;;;;;;;81.10;33.40;;;4.40;99.90;;;;;;5059127;28;20031;-79